createdAt,value
2023-05-08T00:00:58.506Z,5.93
2023-05-08T00:03:28.703Z,6.87
2023-05-08T00:05:57.330Z,6.77
2023-05-08T00:08:25.979Z,8.13
2023-05-08T00:10:54.377Z,6.77
2023-05-08T00:13:23.038Z,5.20
2023-05-08T00:15:52.420Z,4.87
2023-05-08T00:18:20.804Z,6.60
2023-05-08T00:20:50.604Z,7.77
2023-05-08T00:23:18.998Z,8.77
2023-05-08T00:25:47.730Z,7.80
2023-05-08T00:28:16.469Z,7.27
2023-05-08T00:30:44.981Z,10.83
2023-05-08T00:33:13.475Z,6.23
2023-05-08T00:35:42.916Z,8.37
2023-05-08T00:38:12.818Z,6.70
2023-05-08T00:40:41.298Z,5.67
2023-05-08T00:43:09.796Z,7.30
2023-05-08T00:45:39.561Z,6.30
2023-05-08T00:48:08.851Z,6.73
2023-05-08T00:50:37.975Z,7.30
2023-05-08T00:53:06.493Z,9.30
2023-05-08T00:55:36.505Z,8.40
2023-05-08T00:58:04.956Z,6.67
2023-05-08T01:00:33.799Z,8.57
2023-05-08T01:03:11.975Z,9.20
2023-05-08T01:05:42.976Z,10.73
2023-05-08T01:08:13.990Z,14.43
2023-05-08T01:10:48.912Z,12.37
2023-05-08T01:13:20.826Z,13.10
2023-05-08T01:15:57.856Z,14.90
2023-05-08T01:18:30.283Z,13.07
2023-05-08T01:21:01.319Z,13.90
2023-05-08T01:24:00.379Z,11.97
2023-05-08T01:26:43.914Z,12.60
2023-05-08T01:29:34.859Z,14.40
2023-05-08T01:32:16.594Z,16.87
2023-05-08T01:34:48.783Z,14.70
2023-05-08T01:37:19.024Z,12.77
2023-05-08T01:39:49.079Z,14.70
2023-05-08T01:42:26.431Z,13.83
2023-05-08T01:44:56.582Z,12.00
2023-05-08T01:47:29.146Z,11.43
2023-05-08T01:50:01.860Z,16.63
2023-05-08T01:52:33.725Z,13.20
2023-05-08T01:55:05.549Z,10.83
2023-05-08T01:57:59.181Z,14.10
2023-05-08T02:00:30.972Z,16.57
2023-05-08T02:03:02.112Z,13.93
2023-05-08T02:05:31.270Z,14.57
2023-05-08T02:08:00.660Z,13.50
2023-05-08T02:10:40.408Z,17.93
2023-05-08T02:13:10.749Z,14.47
2023-05-08T02:15:40.553Z,18.60
2023-05-08T02:18:11.968Z,15.30
2023-05-08T02:20:41.233Z,16.10
2023-05-08T02:23:11.649Z,14.33
2023-05-08T02:25:45.460Z,15.97
2023-05-08T02:28:14.466Z,17.87
2023-05-08T02:30:44.535Z,15.53
2023-05-08T02:33:15.248Z,19.00
2023-05-08T02:35:45.633Z,15.67
2023-05-08T02:38:15.915Z,13.27
2023-05-08T02:40:50.208Z,18.67
2023-05-08T02:43:19.208Z,16.77
2023-05-08T02:45:57.313Z,16.23
2023-05-08T02:48:30.653Z,17.23
2023-05-08T02:51:01.992Z,16.43
2023-05-08T02:53:34.895Z,16.20
2023-05-08T02:56:08.186Z,15.73
2023-05-08T02:58:43.833Z,19.27
2023-05-08T03:01:19.697Z,20.57
2023-05-08T03:03:51.885Z,16.87
2023-05-08T03:06:23.094Z,19.77
2023-05-08T03:08:54.801Z,18.67
2023-05-08T03:11:26.279Z,18.53
2023-05-08T03:13:55.621Z,17.90
2023-05-08T03:16:26.272Z,20.13
2023-05-08T03:18:59.270Z,19.83
2023-05-08T03:21:29.862Z,20.63
2023-05-08T03:23:59.414Z,18.03
2023-05-08T03:26:28.336Z,20.33
2023-05-08T03:28:58.618Z,19.73
2023-05-08T03:31:34.404Z,20.60
2023-05-08T03:34:16.267Z,19.93
2023-05-08T03:37:14.126Z,17.57
2023-05-08T03:40:07.962Z,22.70
2023-05-08T03:43:13.917Z,21.33
2023-05-08T03:49:21.540Z,25.07
2023-05-08T03:51:59.702Z,20.80
2023-05-08T03:54:30.619Z,23.10
2023-05-08T03:57:03.499Z,22.40
2023-05-08T03:59:49.661Z,21.23
2023-05-08T04:02:24.721Z,21.67
2023-05-08T04:04:58.472Z,21.47
2023-05-08T04:10:41.427Z,20.90
2023-05-08T04:13:19.325Z,23.30
2023-05-08T04:16:21.032Z,26.23
2023-05-08T04:19:08.506Z,26.23
2023-05-08T04:21:41.864Z,22.07
2023-05-08T04:24:32.527Z,20.00
2023-05-08T04:27:48.522Z,23.70
2023-05-08T04:30:21.873Z,25.10
2023-05-08T04:33:18.257Z,21.33
2023-05-08T04:35:54.103Z,22.53
2023-05-08T04:38:28.118Z,30.30
2023-05-08T04:41:18.666Z,20.13
2023-05-08T04:43:53.599Z,24.17
2023-05-08T04:49:53.564Z,28.23
2023-05-08T04:52:50.946Z,27.30
2023-05-08T04:55:23.481Z,23.30
2023-05-08T04:58:29.602Z,30.13
2023-05-08T05:11:26.188Z,24.47
2023-05-08T05:26:10.855Z,18.40
2023-05-08T05:55:18.600Z,23.50
2023-05-08T06:06:12.560Z,25.50
2023-05-08T06:18:37.356Z,23.93
2023-05-08T06:21:06.121Z,25.57
2023-05-08T06:23:37.076Z,22.90
2023-05-08T06:26:08.082Z,24.73
2023-05-08T06:28:36.459Z,26.30
2023-05-08T06:31:05.089Z,25.97
2023-05-08T06:33:33.691Z,22.03
2023-05-08T06:36:03.546Z,26.87
2023-05-08T06:38:31.912Z,25.60
2023-05-08T06:41:00.569Z,24.47
2023-05-08T06:43:29.140Z,23.97
2023-05-08T06:45:57.564Z,24.33
2023-05-08T06:48:29.028Z,20.50
2023-05-08T06:50:57.592Z,20.60
2023-05-08T06:53:27.667Z,26.80
2023-05-08T06:55:57.838Z,28.47
2023-05-08T06:58:26.364Z,26.67
2023-05-08T07:00:54.915Z,24.77
2023-05-08T07:03:23.411Z,23.17
2023-05-08T07:05:51.880Z,26.93
2023-05-08T07:08:20.382Z,27.73
2023-05-08T07:10:50.392Z,29.33
2023-05-08T07:13:22.013Z,27.20
2023-05-08T07:15:51.811Z,27.07
2023-05-08T07:18:20.393Z,25.53
2023-05-08T07:20:49.937Z,24.60
2023-05-08T07:23:18.439Z,22.10
2023-05-08T07:25:46.956Z,24.30
2023-05-08T07:28:16.803Z,27.33
2023-05-08T07:30:45.889Z,23.93
2023-05-08T07:33:14.739Z,25.47
2023-05-08T07:35:43.607Z,26.27
2023-05-08T07:38:12.115Z,26.93
2023-05-08T07:45:19.668Z,31.47
2023-05-08T07:47:57.083Z,28.70
2023-05-08T07:50:38.859Z,34.47
2023-05-08T07:53:30.982Z,26.00
2023-05-08T07:56:02.852Z,30.17
2023-05-08T07:58:36.705Z,30.50
2023-05-08T08:01:13.552Z,32.93
2023-05-08T08:03:56.798Z,35.83
2023-05-08T08:06:26.755Z,31.27
2023-05-08T08:08:55.901Z,31.47
2023-05-08T08:11:25.028Z,28.27
2023-05-08T08:13:53.869Z,29.90
2023-05-08T08:16:23.069Z,30.60
2023-05-08T08:18:54.024Z,28.20
2023-05-08T08:21:37.393Z,27.00
2023-05-08T08:24:30.133Z,28.83
2023-05-08T08:27:01.590Z,29.47
2023-05-08T08:29:31.852Z,28.70
2023-05-08T08:32:11.950Z,27.23
2023-05-08T08:34:42.436Z,29.30
2023-05-08T08:37:12.196Z,25.87
2023-05-08T08:39:57.138Z,26.57
2023-05-08T08:42:36.848Z,24.77
2023-05-08T08:45:17.341Z,23.20
2023-05-08T08:47:47.325Z,31.93
2023-05-08T08:50:22.267Z,27.13
2023-05-08T08:53:11.812Z,31.80
2023-05-08T08:55:46.196Z,27.87
2023-05-08T09:02:08.514Z,28.67
2023-05-08T09:04:39.379Z,25.87
2023-05-08T09:07:17.427Z,24.13
2023-05-08T09:13:39.528Z,31.07
2023-05-08T09:17:03.047Z,26.60
2023-05-08T09:23:52.327Z,29.57
2023-05-08T09:26:53.255Z,27.13
2023-05-08T09:54:54.220Z,26.70
2023-05-08T10:01:22.765Z,25.90
2023-05-08T10:05:10.230Z,32.07
2023-05-08T10:16:33.276Z,26.73
2023-05-08T10:30:31.533Z,29.33
2023-05-08T10:33:17.052Z,26.13
2023-05-08T10:36:43.731Z,29.97
2023-05-08T10:40:33.122Z,28.67
2023-05-08T10:51:18.550Z,26.93
2023-05-08T10:54:22.209Z,26.20
2023-05-08T11:43:14.579Z,31.73
2023-05-08T11:46:58.364Z,34.08
2023-05-08T12:05:24.734Z,30.75
2023-05-08T12:12:23.109Z,29.00
2023-05-08T12:19:33.340Z,29.58
2023-05-08T12:22:50.568Z,26.60
2023-05-08T12:26:01.072Z,24.98
2023-05-08T12:42:48.659Z,22.20
2023-05-08T12:45:50.520Z,20.08
2023-05-08T12:52:32.263Z,21.17
2023-05-08T12:55:03.552Z,20.70
2023-05-08T12:58:29.768Z,21.48
2023-05-08T13:01:20.795Z,20.55
2023-05-08T13:14:14.439Z,20.25
2023-05-08T13:25:03.380Z,21.33
2023-05-08T13:32:11.308Z,21.58
2023-05-08T13:35:00.168Z,23.42
2023-05-08T13:38:11.356Z,24.80
2023-05-08T13:40:43.732Z,19.63
2023-05-08T13:43:21.239Z,21.42
2023-05-08T13:45:50.776Z,22.42
2023-05-08T13:48:45.783Z,22.40
2023-05-08T13:51:15.405Z,19.42
2023-05-08T13:57:33.236Z,18.27
2023-05-08T14:00:28.268Z,18.88
2023-05-08T14:03:04.835Z,17.92
2023-05-08T14:05:35.981Z,20.83
2023-05-08T14:08:07.533Z,19.88
2023-05-08T14:11:00.635Z,21.33
2023-05-08T14:13:33.950Z,22.35
2023-05-08T14:16:23.527Z,20.15
2023-05-08T14:18:58.048Z,27.17
2023-05-08T14:29:42.544Z,26.55
2023-05-08T14:32:17.201Z,30.15
2023-05-08T14:39:15.984Z,26.92
2023-05-08T14:42:14.245Z,26.17
2023-05-08T14:48:26.842Z,26.33
2023-05-08T14:54:28.235Z,26.00
2023-05-08T14:57:00.245Z,23.33
2023-05-08T14:59:30.077Z,24.98
2023-05-08T15:02:41.194Z,26.60
2023-05-08T15:05:20.908Z,26.85
2023-05-08T15:07:55.434Z,26.15
2023-05-08T15:10:29.940Z,24.40
2023-05-08T15:13:30.249Z,28.90
2023-05-08T15:16:06.439Z,25.45
2023-05-08T15:24:49.585Z,23.85
2023-05-08T15:27:37.345Z,23.52
2023-05-08T15:30:23.791Z,23.92
2023-05-08T15:35:57.715Z,22.55
2023-05-08T15:38:49.345Z,18.73
2023-05-08T15:47:18.164Z,20.13
2023-05-08T15:50:07.402Z,21.17
2023-05-08T15:52:46.965Z,18.02
2023-05-08T15:55:40.502Z,18.58
2023-05-08T16:01:28.819Z,19.42
2023-05-08T16:04:02.911Z,16.88
2023-05-08T16:06:34.347Z,19.83
2023-05-08T16:09:03.594Z,20.08
2023-05-08T16:12:00.521Z,20.60
2023-05-08T16:14:31.494Z,22.25
2023-05-08T16:17:14.363Z,21.33
2023-05-08T16:20:06.950Z,20.60
2023-05-08T16:22:58.937Z,22.98
2023-05-08T16:25:30.281Z,23.67
2023-05-08T16:28:04.809Z,22.10
2023-05-08T16:30:35.961Z,24.15
2023-05-08T16:33:05.772Z,25.15
2023-05-08T16:35:37.282Z,26.75
2023-05-08T16:38:36.449Z,23.75
2023-05-08T16:41:10.756Z,27.13
2023-05-08T16:43:41.774Z,20.73
2023-05-08T16:46:10.840Z,25.23
2023-05-08T16:48:39.456Z,24.00
2023-05-08T16:51:09.339Z,23.63
2023-05-08T16:53:47.226Z,21.45
2023-05-08T16:56:24.049Z,22.60
2023-05-08T16:58:54.381Z,21.02
2023-05-08T17:01:30.403Z,28.75
2023-05-08T17:04:14.013Z,22.02
2023-05-08T17:07:04.750Z,21.08
2023-05-08T17:09:35.094Z,22.85
2023-05-08T17:12:06.342Z,23.23
2023-05-08T17:14:47.092Z,24.55
2023-05-08T17:17:26.162Z,24.90
2023-05-08T17:19:58.344Z,23.95
2023-05-08T17:22:53.584Z,21.65
2023-05-08T17:25:38.169Z,21.80
2023-05-08T17:28:10.629Z,23.05
2023-05-08T17:30:39.529Z,21.65
2023-05-08T17:33:08.652Z,22.90
2023-05-08T17:38:45.932Z,21.65
2023-05-08T17:41:20.440Z,24.73
2023-05-08T17:43:49.874Z,24.45
2023-05-08T17:46:22.517Z,24.85
2023-05-08T17:48:52.233Z,47.67
2023-05-08T17:51:23.474Z,26.55
2023-05-08T17:54:08.884Z,27.60
2023-05-08T17:56:53.323Z,23.05
2023-05-08T18:06:19.912Z,25.48
2023-05-08T18:12:58.232Z,26.77
2023-05-08T18:26:43.254Z,29.10
2023-05-08T18:29:15.396Z,31.38
2023-05-08T18:31:52.083Z,28.13
2023-05-08T18:34:26.328Z,29.17
2023-05-08T18:36:58.083Z,26.42
2023-05-08T18:42:51.485Z,24.47
2023-05-08T18:45:34.335Z,28.33
2023-05-08T18:48:06.892Z,25.70
2023-05-08T18:54:06.143Z,25.00
2023-05-08T18:56:35.724Z,23.93
2023-05-08T18:59:04.994Z,25.15
2023-05-08T19:01:59.259Z,26.58
2023-05-08T19:04:56.512Z,28.88
2023-05-08T19:07:26.655Z,21.75
2023-05-08T19:09:56.481Z,26.70
2023-05-08T19:12:25.237Z,23.52
2023-05-08T19:14:55.645Z,23.88
2023-05-08T19:17:24.213Z,23.70
2023-05-08T19:19:53.141Z,23.52
2023-05-08T19:22:22.072Z,24.30
2023-05-08T19:24:52.094Z,23.63
2023-05-08T19:27:21.936Z,25.27
2023-05-08T19:29:50.702Z,28.13
2023-05-08T19:32:19.627Z,29.27
2023-05-08T19:34:48.383Z,27.30
2023-05-08T19:37:19.284Z,29.13
2023-05-08T19:39:49.859Z,26.83
2023-05-08T19:42:22.426Z,27.67
2023-05-08T19:44:51.702Z,28.90
2023-05-08T19:47:21.724Z,29.40
2023-05-08T19:49:51.253Z,27.93
2023-05-08T19:52:20.477Z,29.97
2023-05-08T19:54:49.195Z,29.07
2023-05-08T19:57:35.488Z,28.17
2023-05-08T20:00:06.949Z,29.87
2023-05-08T20:02:38.018Z,28.10
2023-05-08T20:07:46.008Z,25.40
2023-05-08T20:13:34.294Z,27.57
2023-05-08T20:16:17.874Z,24.98
2023-05-08T20:18:49.399Z,28.77
2023-05-08T20:21:18.362Z,27.00
2023-05-08T20:24:01.909Z,29.33
2023-05-08T20:26:35.586Z,31.60
2023-05-08T20:29:11.767Z,37.53
2023-05-08T20:35:04.322Z,32.73
2023-05-08T20:37:40.584Z,36.80
2023-05-08T20:40:14.420Z,34.50
2023-05-08T20:43:01.959Z,32.97
2023-05-08T20:45:33.872Z,33.77
2023-05-08T20:48:09.148Z,31.27
2023-05-08T20:50:41.900Z,31.50
2023-05-08T20:53:35.519Z,30.30
2023-05-08T20:56:22.867Z,29.00
2023-05-08T20:58:53.135Z,29.50
2023-05-08T21:01:22.580Z,29.87
2023-05-08T21:03:53.116Z,31.23
2023-05-08T21:06:28.144Z,30.83
2023-05-08T21:12:58.388Z,30.10
2023-05-08T21:15:27.635Z,32.90
2023-05-08T21:17:57.506Z,29.37
2023-05-08T21:20:26.255Z,31.40
2023-05-08T21:23:19.083Z,30.43
2023-05-08T21:25:51.868Z,30.07
2023-05-08T21:28:20.906Z,33.80
2023-05-08T21:30:52.252Z,31.90
2023-05-08T21:33:27.198Z,32.83
2023-05-08T21:35:56.754Z,30.80
2023-05-08T21:38:33.056Z,35.23
2023-05-08T21:43:59.359Z,36.90
2023-05-08T21:46:31.096Z,33.97
2023-05-08T21:49:04.759Z,33.23
2023-05-08T21:51:33.411Z,35.10
2023-05-08T21:54:06.075Z,34.57
2023-05-08T21:56:37.091Z,33.37
2023-05-08T21:59:05.843Z,33.63
2023-05-08T22:01:34.626Z,33.77
2023-05-08T22:04:03.384Z,34.83
2023-05-08T22:06:34.885Z,35.33
2023-05-08T22:09:03.862Z,36.93
2023-05-08T22:11:32.784Z,34.87
2023-05-08T22:14:02.956Z,34.93
2023-05-08T22:16:32.329Z,34.00
2023-05-08T22:19:03.527Z,38.80
2023-05-08T22:21:37.677Z,38.13
2023-05-08T22:24:07.328Z,36.10
2023-05-08T22:26:38.325Z,39.23
2023-05-08T22:29:36.316Z,36.87
2023-05-08T22:35:09.023Z,37.30
2023-05-08T22:37:38.076Z,34.60
2023-05-08T22:40:07.540Z,33.03
2023-05-08T22:42:50.727Z,36.57
2023-05-08T22:45:33.264Z,40.97
2023-05-08T22:48:03.256Z,34.03
2023-05-08T22:50:38.538Z,38.93
2023-05-08T22:53:16.636Z,35.77
2023-05-08T22:55:48.512Z,33.37
2023-05-08T22:58:26.896Z,35.30
2023-05-08T23:00:59.651Z,43.30
2023-05-08T23:03:28.446Z,35.13
2023-05-08T23:05:58.971Z,37.00
2023-05-08T23:08:30.419Z,39.27
2023-05-08T23:10:59.854Z,33.40
2023-05-08T23:13:28.550Z,33.30
2023-05-08T23:52:05.585Z,41.43
2023-05-08T23:54:37.528Z,39.80
2023-05-08T23:57:08.387Z,41.53
2023-05-08T23:59:36.906Z,41.10
